Terminal Aerodrome Forecast
Issued by NWS

Home | Current Version | Previous Version | Text Only | Print | Product List | Glossary On
Versions: 1 2 3 4 5 6 7 8 9 10 11 12 13
000
FTUS46 KSGX 281126
TAFSNA
TAF
KSNA 281126Z 2812/2912 VRB04KT P6SM OVC012
     FM281900 22008KT P6SM SCT020
     FM290000 VRB04KT P6SM SCT020
     FM290400 VRB04KT P6SM BKN022
     FM290800 VRB04KT P6SM BKN018=

USA.gov is the U.S. government's official web portal to all federal, state and local government web resources and services.